Home   Weather   Romania   Baia Mare   Past weeks
Flag for Romania

Past Weather in Baia Mare, Romania — Yesterday and Last 2 Weeks

Currently: 90 °F. Passing clouds. (Weather station: Baia Mare Airport, Romania). See more current weather

Past Weather in Baia Mare — Graph

°F

Baia Mare Temperature Yesterday

Maximum temperature yesterday: 86 °F (at 5:30 pm)
Minimum temperature yesterday: 59 °F (at 5:30 am)
Average temperature yesterday: 74 °F

High & Low Weather Summary for the Past Weeks

 TemperatureHumidityPressure
High90 °F (Jun 18, 5:00 pm)100% (Jun 16, 4:00 am)30.09 "Hg (Jun 16, 4:00 am)
Low52 °F (Jun 10, 6:00 am)31% (Jun 18, 6:00 pm)29.80 "Hg (Jun 13, 4:00 am)
Average68 °F68%29.97 "Hg
* Reported Jun 7 3:00 pm — Jun 22 3:00 pm, Baia Mare. Weather by CustomWeather, © 2021

Note: Actual official high and low records may vary slightly from our data, if they occured in-between our weather recording intervals... More about our weather records

Baia Mare Weather History for the Previous 24 Hours

Scroll right to see more
 ConditionsComfort  
Time TempWeatherWind HumidityBarometerVisibility
3:00 pm
Tue, Jun 22
90 °FPassing clouds.3 mph41%29.86 "HgN/A
2:30 pm90 °FPassing clouds.3 mph43%29.86 "HgN/A
2:00 pm88 °FPassing clouds.5 mph43%29.86 "HgN/A
1:30 pm86 °FPassing clouds.6 mph49%29.89 "HgN/A
1:00 pm88 °FPassing clouds.5 mph43%29.89 "HgN/A
12:30 pm86 °FPassing clouds.6 mph52%29.89 "HgN/A
12:00 pm86 °FPassing clouds.6 mph49%29.89 "HgN/A
11:30 am84 °FPassing clouds.5 mph48%29.89 "HgN/A
11:00 am84 °FPassing clouds.6 mph51%29.86 "HgN/A
10:30 am82 °FPassing clouds.6 mph58%29.89 "HgN/A
10:00 am81 °FPassing clouds.6 mph58%29.89 "HgN/A
9:30 am79 °FPassing clouds.6 mph65%29.89 "HgN/A
9:00 am77 °FPassing clouds.3 mph65%29.89 "HgN/A
8:30 am75 °FPassing clouds.3 mph65%29.89 "HgN/A
8:00 am73 °FPassing clouds.6 mph69%29.89 "HgN/A
7:30 am70 °FPassing clouds.6 mph78%29.89 "HgN/A
7:00 am70 °FPassing clouds.3 mph73%29.86 "HgN/A
6:30 am68 °FPassing clouds.No wind78%29.86 "HgN/A
6:00 am64 °FMild.2 mph88%29.86 "HgN/A
5:30 am66 °FMild.2 mph78%29.86 "HgN/A
5:00 am66 °FMild.No wind83%29.86 "HgN/A
4:30 am66 °FPassing clouds.5 mph78%29.86 "HgN/A
4:00 am68 °FMild.6 mph73%29.86 "HgN/A
3:30 am68 °FPassing clouds.6 mph73%29.86 "HgN/A
3:00 am68 °FPassing clouds.6 mph78%29.86 "HgN/A
2:30 am68 °FPassing clouds.6 mph78%29.86 "HgN/A
2:00 am66 °FMild.No wind83%29.86 "HgN/A
1:30 am68 °FMild.3 mph78%29.86 "HgN/A
1:00 am70 °FMild.6 mph73%29.86 "HgN/A
12:30 am68 °FPassing clouds.6 mph78%29.86 "HgN/A
12:00 am72 °FMild.7 mph69%29.86 "HgN/A
11:30 pm
Mon, Jun 21
70 °FMild.3 mph73%29.86 "HgN/A
11:00 pm72 °FMild.5 mph69%29.86 "HgN/A
10:30 pm70 °FMild.1 mph78%29.86 "HgN/A
10:00 pm72 °FMild.2 mph73%29.83 "HgN/A
9:30 pm73 °FMild.3 mph74%29.83 "HgN/A
9:00 pm77 °FWarm.2 mph65%29.83 "HgN/A
8:30 pm81 °FWarm.5 mph54%29.83 "HgN/A
8:00 pm82 °FWarm.5 mph51%29.83 "HgN/A
7:30 pm84 °FWarm.5 mph45%29.80 "HgN/A
7:00 pm84 °FPassing clouds.6 mph45%29.80 "HgN/A
6:30 pm84 °FPassing clouds.6 mph45%29.80 "HgN/A
6:00 pm84 °FPassing clouds.6 mph45%29.83 "HgN/A
5:30 pm86 °FPassing clouds.3 mph43%29.83 "HgN/A
5:00 pm84 °FPassing clouds.3 mph43%29.83 "HgN/A
4:30 pm84 °FPassing clouds.7 mph43%29.83 "HgN/A
4:00 pm84 °FPassing clouds.6 mph45%29.83 "HgN/A
Weather by CustomWeather, © 2021

See weather overview